createdAt,value
2022-09-01T00:00:28.671Z,0.00
2022-09-01T00:01:28.713Z,0.00
2022-09-01T00:02:28.691Z,0.00
2022-09-01T00:03:28.741Z,0.00
2022-09-01T00:04:28.603Z,0.00
2022-09-01T00:05:28.543Z,0.00
2022-09-01T00:06:28.748Z,0.00
2022-09-01T00:07:28.361Z,0.00
2022-09-01T00:08:28.509Z,0.00
2022-09-01T00:09:28.263Z,0.00
2022-09-01T00:10:28.474Z,0.00
2022-09-01T00:11:28.265Z,0.00
2022-09-01T00:12:28.222Z,0.00
2022-09-01T00:13:28.284Z,0.00
2022-09-01T00:14:29.469Z,0.00
2022-09-01T00:15:28.164Z,0.00
2022-09-01T00:16:27.977Z,0.00
2022-09-01T00:17:28.114Z,0.00
2022-09-01T00:18:28.167Z,0.00
2022-09-01T00:19:27.939Z,0.00
2022-09-01T00:20:27.825Z,0.00
2022-09-01T00:21:27.946Z,0.00
2022-09-01T00:22:27.747Z,0.00
2022-09-01T00:23:27.714Z,0.00
2022-09-01T00:24:27.667Z,0.00
2022-09-01T00:25:28.811Z,0.00
2022-09-01T00:26:27.595Z,0.00
2022-09-01T00:27:31.034Z,0.00
2022-09-01T00:28:30.288Z,0.00
2022-09-01T00:29:27.424Z,0.00
2022-09-01T00:30:27.381Z,0.00
2022-09-01T00:31:27.639Z,0.00
2022-09-01T00:32:27.304Z,0.00
2022-09-01T00:33:27.513Z,0.00
2022-09-01T00:34:27.216Z,0.00
2022-09-01T00:35:27.172Z,0.00
2022-09-01T00:36:27.176Z,0.00
2022-09-01T00:37:27.342Z,0.00
2022-09-01T00:38:27.069Z,0.00
2022-09-01T00:39:27.349Z,0.00
2022-09-01T00:40:26.986Z,0.00
2022-09-01T00:41:26.929Z,0.00
2022-09-01T00:42:27.100Z,0.00
2022-09-01T00:43:26.895Z,0.00
2022-09-01T00:44:27.084Z,0.00
2022-09-01T00:45:26.765Z,0.00
2022-09-01T00:46:28.960Z,0.00
2022-09-01T00:47:26.669Z,0.00
2022-09-01T00:48:26.929Z,0.00
2022-09-01T00:49:35.747Z,0.00
2022-09-01T00:50:26.567Z,0.00
2022-09-01T00:51:26.725Z,0.00
2022-09-01T00:52:26.462Z,0.00
2022-09-01T00:53:26.547Z,0.00
2022-09-01T00:54:26.419Z,0.00
2022-09-01T00:55:26.968Z,0.00
2022-09-01T00:56:26.344Z,0.00
2022-09-01T00:57:26.446Z,0.00
2022-09-01T00:58:26.363Z,0.00
2022-09-01T00:59:26.189Z,0.00
2022-09-01T01:00:36.777Z,0.00
2022-09-01T01:01:26.147Z,0.00
2022-09-01T01:02:26.081Z,0.00
2022-09-01T01:03:26.004Z,0.00
2022-09-01T01:04:25.964Z,0.00
2022-09-01T01:05:26.096Z,0.00
2022-09-01T01:06:25.880Z,0.00
2022-09-01T01:07:25.834Z,0.00
2022-09-01T01:08:25.793Z,0.00
2022-09-01T01:09:25.753Z,0.00
2022-09-01T01:10:25.715Z,0.00
2022-09-01T01:11:25.685Z,0.00
2022-09-01T01:12:25.631Z,0.00
2022-09-01T01:13:25.588Z,0.00
2022-09-01T01:14:25.544Z,0.00
2022-09-01T01:15:25.503Z,0.00
2022-09-01T01:16:25.472Z,0.00
2022-09-01T01:17:25.445Z,0.00
2022-09-01T01:18:25.374Z,0.00
2022-09-01T01:19:25.335Z,0.00
2022-09-01T01:20:25.295Z,0.00
2022-09-01T01:21:25.258Z,0.00
2022-09-01T01:22:26.218Z,0.00
2022-09-01T01:23:25.184Z,0.00
2022-09-01T01:24:25.128Z,0.00
2022-09-01T01:25:25.082Z,0.00
2022-09-01T01:26:25.039Z,0.00
2022-09-01T01:27:25.158Z,0.00
2022-09-01T01:28:24.987Z,0.00
2022-09-01T01:29:24.918Z,0.00
2022-09-01T01:30:24.873Z,0.00
2022-09-01T01:31:24.899Z,0.00
2022-09-01T01:32:24.793Z,0.00
2022-09-01T01:33:24.748Z,0.00
2022-09-01T01:34:24.717Z,0.00
2022-09-01T01:35:24.666Z,0.00
2022-09-01T01:36:24.631Z,0.00
2022-09-01T01:37:24.584Z,0.00
2022-09-01T01:38:24.655Z,0.00
2022-09-01T01:39:24.502Z,0.00
2022-09-01T01:40:24.493Z,0.00
2022-09-01T01:41:24.419Z,0.00
2022-09-01T01:42:24.375Z,0.00
2022-09-01T01:43:24.334Z,0.00
2022-09-01T01:44:24.303Z,0.00
2022-09-01T01:45:24.250Z,0.00
2022-09-01T01:46:24.245Z,0.00
2022-09-01T01:47:24.165Z,0.00
2022-09-01T01:48:24.127Z,0.00
2022-09-01T01:49:24.081Z,0.00
2022-09-01T01:50:24.081Z,0.00
2022-09-01T01:51:24.000Z,0.00
2022-09-01T01:52:26.861Z,0.00
2022-09-01T01:53:23.913Z,0.00
2022-09-01T01:54:23.873Z,0.00
2022-09-01T01:55:23.836Z,0.00
2022-09-01T01:56:23.813Z,0.00
2022-09-01T01:57:23.758Z,0.00
2022-09-01T01:58:23.706Z,0.00
2022-09-01T01:59:23.667Z,0.00
2022-09-01T02:00:27.083Z,0.00
2022-09-01T02:01:23.631Z,0.00
2022-09-01T02:02:23.603Z,0.00
2022-09-01T02:03:23.497Z,0.00
2022-09-01T02:04:23.454Z,0.00
2022-09-01T02:05:23.420Z,0.00
2022-09-01T02:06:23.373Z,0.00
2022-09-01T02:07:23.329Z,0.00
2022-09-01T02:08:23.305Z,0.00
2022-09-01T02:09:23.271Z,0.00
2022-09-01T02:10:23.203Z,0.00
2022-09-01T02:11:23.159Z,0.00
2022-09-01T02:12:23.121Z,0.00
2022-09-01T02:13:23.079Z,0.00
2022-09-01T02:14:23.045Z,0.00
2022-09-01T02:15:24.712Z,0.00
2022-09-01T02:16:23.819Z,0.00
2022-09-01T02:17:22.910Z,0.00
2022-09-01T02:18:22.870Z,0.00
2022-09-01T02:19:22.825Z,0.00
2022-09-01T02:20:22.815Z,0.00
2022-09-01T02:21:22.796Z,0.00
2022-09-01T02:22:22.716Z,0.00
2022-09-01T02:23:22.661Z,0.00
2022-09-01T02:24:22.648Z,0.00
2022-09-01T02:25:22.580Z,0.00
2022-09-01T02:26:22.545Z,0.00
2022-09-01T02:27:22.590Z,0.00
2022-09-01T02:28:22.450Z,0.00
2022-09-01T02:29:22.412Z,0.00
2022-09-01T02:30:22.451Z,0.00
2022-09-01T02:31:22.324Z,0.00
2022-09-01T02:32:22.285Z,0.00
2022-09-01T02:33:22.257Z,0.00
2022-09-01T02:34:22.197Z,0.00
2022-09-01T02:35:22.158Z,0.00
2022-09-01T02:36:22.115Z,0.00
2022-09-01T02:37:22.074Z,0.00
2022-09-01T02:38:22.035Z,0.00
2022-09-01T02:39:22.036Z,0.00
2022-09-01T02:40:22.004Z,0.00
2022-09-01T02:41:21.907Z,0.00
2022-09-01T02:42:21.870Z,0.00
2022-09-01T02:43:21.863Z,0.00
2022-09-01T02:44:21.782Z,0.00
2022-09-01T02:45:21.847Z,0.00
2022-09-01T02:46:21.712Z,0.00
2022-09-01T02:47:21.663Z,0.00
2022-09-01T02:48:21.710Z,0.00
2022-09-01T02:49:21.571Z,0.00
2022-09-01T02:50:21.535Z,0.00
2022-09-01T02:51:21.507Z,0.00
2022-09-01T02:52:21.451Z,0.00
2022-09-01T02:53:21.410Z,0.00
2022-09-01T02:54:21.394Z,0.00
2022-09-01T02:55:21.324Z,0.00
2022-09-01T02:56:21.280Z,0.00
2022-09-01T02:57:21.249Z,0.00
2022-09-01T02:58:21.368Z,0.00
2022-09-01T02:59:21.151Z,0.00
2022-09-01T03:00:21.122Z,0.00
2022-09-01T03:01:21.114Z,0.00
2022-09-01T03:02:21.028Z,0.00
2022-09-01T03:03:21.021Z,0.00
2022-09-01T03:05:20.906Z,0.00
2022-09-01T03:06:20.860Z,0.00
2022-09-01T03:07:20.829Z,0.00
2022-09-01T03:08:21.008Z,0.00
2022-09-01T03:09:20.747Z,0.00
2022-09-01T03:10:20.692Z,0.00
2022-09-01T03:11:20.648Z,0.00
2022-09-01T03:12:20.609Z,0.00
2022-09-01T03:13:20.567Z,0.00
2022-09-01T03:14:20.546Z,0.00
2022-09-01T03:15:20.481Z,0.00
2022-09-01T03:16:20.490Z,0.00
2022-09-01T03:17:20.394Z,0.00
2022-09-01T03:18:20.486Z,0.00
2022-09-01T03:19:20.312Z,0.00
2022-09-01T03:20:20.285Z,0.00
2022-09-01T03:21:20.230Z,0.00
2022-09-01T03:22:20.910Z,0.00
2022-09-01T03:23:20.151Z,0.00
2022-09-01T03:24:20.253Z,0.00
2022-09-01T03:25:20.070Z,0.00
2022-09-01T03:26:20.038Z,0.00
2022-09-01T03:27:19.976Z,0.00
2022-09-01T03:28:20.130Z,0.00
2022-09-01T03:29:19.890Z,0.00
2022-09-01T03:30:19.852Z,0.00
2022-09-01T03:31:19.908Z,0.00
2022-09-01T03:32:19.780Z,0.00
2022-09-01T03:33:19.726Z,0.00
2022-09-01T03:34:19.680Z,0.00
2022-09-01T03:35:19.639Z,0.00
2022-09-01T03:36:20.469Z,0.00
2022-09-01T03:37:19.556Z,0.00
2022-09-01T03:38:21.513Z,0.00
2022-09-01T03:39:19.493Z,0.00
2022-09-01T03:40:19.490Z,0.00
2022-09-01T03:41:19.382Z,0.00
2022-09-01T03:42:19.347Z,0.00
2022-09-01T03:43:19.301Z,0.00
2022-09-01T03:44:19.260Z,0.00
2022-09-01T03:45:19.857Z,0.00
2022-09-01T03:46:19.259Z,0.00
2022-09-01T03:47:19.805Z,0.00
2022-09-01T03:48:19.365Z,0.00
2022-09-01T03:49:19.050Z,0.00
2022-09-01T03:50:19.010Z,0.00
2022-09-01T03:51:18.999Z,0.00
2022-09-01T03:52:18.925Z,0.00
2022-09-01T03:53:18.882Z,0.00
2022-09-01T03:54:18.865Z,0.00
2022-09-01T03:55:18.796Z,0.00
2022-09-01T03:56:18.759Z,0.00
2022-09-01T03:57:18.753Z,0.00
2022-09-01T03:58:18.674Z,0.00
2022-09-01T03:59:18.629Z,0.00
2022-09-01T04:00:18.585Z,0.00
2022-09-01T04:01:18.580Z,0.00
2022-09-01T04:02:18.544Z,0.00
2022-09-01T04:03:18.576Z,0.00
2022-09-01T04:04:18.419Z,0.00
2022-09-01T04:05:18.376Z,0.00
2022-09-01T04:06:18.339Z,0.00
2022-09-01T04:07:19.169Z,0.00
2022-09-01T04:08:18.476Z,0.00
2022-09-01T04:09:18.235Z,0.00
2022-09-01T04:10:18.166Z,0.00
2022-09-01T04:11:18.132Z,0.00
2022-09-01T04:12:18.082Z,0.00
2022-09-01T04:13:18.039Z,0.00
2022-09-01T04:14:18.010Z,0.00
2022-09-01T04:15:17.971Z,0.00
2022-09-01T04:16:17.962Z,0.00
2022-09-01T04:17:17.872Z,0.00
2022-09-01T04:18:17.831Z,0.00
2022-09-01T04:19:17.808Z,0.00
2022-09-01T04:20:17.745Z,0.00
2022-09-01T04:21:17.702Z,0.00
2022-09-01T04:22:17.745Z,0.00
2022-09-01T04:23:17.615Z,0.00
2022-09-01T04:24:17.577Z,0.00
2022-09-01T04:25:17.557Z,0.00
2022-09-01T04:26:17.500Z,0.00
2022-09-01T04:27:17.454Z,0.00
2022-09-01T04:28:17.472Z,0.00
2022-09-01T04:29:17.368Z,0.00
2022-09-01T04:30:17.356Z,0.00
2022-09-01T04:31:17.331Z,0.00
2022-09-01T04:32:17.243Z,0.00
2022-09-01T04:33:17.201Z,0.00
2022-09-01T04:34:17.181Z,0.00
2022-09-01T04:35:17.320Z,0.00
2022-09-01T04:36:17.075Z,0.00
2022-09-01T04:37:17.031Z,5.63
2022-09-01T04:38:17.014Z,5.63
2022-09-01T04:39:16.947Z,5.63
2022-09-01T04:40:17.107Z,5.63
2022-09-01T04:41:16.862Z,5.63
2022-09-01T04:42:16.823Z,11.25
2022-09-01T04:43:16.784Z,11.25
2022-09-01T04:44:16.755Z,11.25
2022-09-01T04:45:20.504Z,11.25
2022-09-01T04:46:16.700Z,11.25
2022-09-01T04:47:16.612Z,16.88
2022-09-01T04:48:16.618Z,16.88
2022-09-01T04:49:16.528Z,16.88
2022-09-01T04:50:16.496Z,16.88
2022-09-01T04:51:16.449Z,22.50
2022-09-01T04:52:16.408Z,22.50
2022-09-01T04:53:16.360Z,22.50
2022-09-01T04:54:16.322Z,22.50
2022-09-01T04:55:16.297Z,28.13
2022-09-01T04:56:16.238Z,28.13
2022-09-01T04:57:16.194Z,28.13
2022-09-01T04:58:16.212Z,28.13
2022-09-01T04:59:16.106Z,33.75
2022-09-01T05:00:16.072Z,33.75
2022-09-01T05:01:16.187Z,39.38
2022-09-01T05:02:16.003Z,45.00
2022-09-01T05:03:15.952Z,50.63
2022-09-01T05:04:15.901Z,45.00
2022-09-01T05:05:15.863Z,45.00
2022-09-01T05:06:15.832Z,50.63
2022-09-01T05:07:15.819Z,56.25
2022-09-01T05:08:23.122Z,61.88
2022-09-01T05:09:15.726Z,61.88
2022-09-01T05:10:15.661Z,61.88
2022-09-01T05:11:15.604Z,61.88
2022-09-01T05:12:15.909Z,67.50
2022-09-01T05:13:15.536Z,67.50
2022-09-01T05:14:15.485Z,67.50
2022-09-01T05:15:15.443Z,67.50
2022-09-01T05:16:15.430Z,73.13
2022-09-01T05:17:15.353Z,78.75
2022-09-01T05:18:15.321Z,78.75
2022-09-01T05:19:15.292Z,84.38
2022-09-01T05:20:15.301Z,84.38
2022-09-01T05:21:15.188Z,90.00
2022-09-01T05:22:15.147Z,95.63
2022-09-01T05:23:15.109Z,95.63
2022-09-01T05:24:15.070Z,95.63
2022-09-01T05:25:15.041Z,95.63
2022-09-01T05:26:14.988Z,95.63
2022-09-01T05:27:14.971Z,95.63
2022-09-01T05:28:14.904Z,90.00
2022-09-01T05:29:14.867Z,78.75
2022-09-01T05:30:14.822Z,84.38
2022-09-01T05:31:14.871Z,101.25
2022-09-01T05:32:14.740Z,101.25
2022-09-01T05:33:17.629Z,101.25
2022-09-01T05:34:14.651Z,101.25
2022-09-01T05:35:14.611Z,101.25
2022-09-01T05:36:14.573Z,95.63
2022-09-01T05:37:14.538Z,101.25
2022-09-01T05:38:14.502Z,95.63
2022-09-01T05:39:14.461Z,101.25
2022-09-01T05:40:14.458Z,118.13
2022-09-01T05:41:14.367Z,129.38
2022-09-01T05:42:14.328Z,135.00
2022-09-01T05:43:14.277Z,129.38
2022-09-01T05:44:14.255Z,118.13
2022-09-01T05:45:14.238Z,123.75
2022-09-01T05:46:14.212Z,129.38
2022-09-01T05:47:20.644Z,129.38
2022-09-01T05:48:14.080Z,140.63
2022-09-01T05:49:14.086Z,146.25
2022-09-01T05:50:14.812Z,140.63
2022-09-01T05:51:33.539Z,135.00
2022-09-01T05:52:13.906Z,140.63
2022-09-01T05:53:13.866Z,151.88
2022-09-01T05:54:13.823Z,135.00
2022-09-01T05:55:13.785Z,129.38
2022-09-01T05:56:13.742Z,135.00
2022-09-01T05:57:33.143Z,146.25
2022-09-01T05:58:13.658Z,146.25
2022-09-01T05:59:28.777Z,146.25
2022-09-01T06:03:47.418Z,174.38
2022-09-01T06:04:47.035Z,163.13
2022-09-01T06:05:47.229Z,168.75
2022-09-01T06:07:06.728Z,180.00
2022-09-01T06:07:46.909Z,174.38
2022-09-01T06:08:47.043Z,168.75
2022-09-01T06:09:46.836Z,185.63
2022-09-01T06:10:47.065Z,202.50
2022-09-01T06:11:46.743Z,213.75
2022-09-01T06:12:48.682Z,219.38
2022-09-01T06:13:46.658Z,225.00
2022-09-01T06:14:47.091Z,219.38
2022-09-01T06:15:46.576Z,230.63
2022-09-01T06:16:46.708Z,241.88
2022-09-01T06:17:46.501Z,230.63
2022-09-01T06:18:46.708Z,213.75
2022-09-01T06:19:46.409Z,219.38
2022-09-01T06:20:47.543Z,241.88
2022-09-01T06:21:46.333Z,253.13
2022-09-01T06:22:46.532Z,258.75
2022-09-01T06:23:46.246Z,275.63
2022-09-01T06:24:49.624Z,286.88
2022-09-01T06:25:46.506Z,286.88
2022-09-01T06:26:46.152Z,270.00
2022-09-01T06:27:46.482Z,264.38
2022-09-01T06:28:46.041Z,292.50
2022-09-01T06:29:46.071Z,286.88
2022-09-01T06:30:45.966Z,292.50
2022-09-01T06:31:46.150Z,309.38
2022-09-01T06:32:45.880Z,326.25
2022-09-01T06:33:45.902Z,315.00
2022-09-01T06:34:45.803Z,298.13
2022-09-01T06:35:45.911Z,298.13
2022-09-01T06:36:45.721Z,320.63
2022-09-01T06:37:45.724Z,348.75
2022-09-01T06:38:45.637Z,388.13
2022-09-01T06:39:46.250Z,382.50
2022-09-01T06:40:45.653Z,388.13
2022-09-01T06:41:45.653Z,388.13
2022-09-01T06:42:45.554Z,393.75
2022-09-01T06:43:46.502Z,393.75
2022-09-01T06:44:45.573Z,388.13
2022-09-01T06:45:45.368Z,393.75
2022-09-01T06:46:45.411Z,427.50
2022-09-01T06:47:45.276Z,455.63
2022-09-01T06:48:45.355Z,444.38
2022-09-01T06:49:45.300Z,438.75
2022-09-01T06:51:45.113Z,433.13
2022-09-01T06:53:45.124Z,438.75
2022-09-01T06:54:45.128Z,450.00
2022-09-01T06:55:44.951Z,466.88
2022-09-01T06:56:51.453Z,461.25
2022-09-01T06:58:44.830Z,511.88
2022-09-01T06:59:45.164Z,511.88
2022-09-01T07:00:44.760Z,511.88
2022-09-01T07:01:44.885Z,506.25
2022-09-01T07:02:44.733Z,489.38
2022-09-01T07:03:44.796Z,450.00
2022-09-01T07:04:44.591Z,433.13
2022-09-01T07:07:00.329Z,478.13
2022-09-01T07:13:05.032Z,528.75
2022-09-01T07:14:15.188Z,489.38
2022-09-01T07:16:51.760Z,478.13
2022-09-01T07:17:44.270Z,528.75
2022-09-01T07:18:44.656Z,618.75
2022-09-01T07:19:51.035Z,708.75
2022-09-01T07:22:06.655Z,736.88
2022-09-01T07:24:06.053Z,613.13
2022-09-01T07:24:43.799Z,613.13
2022-09-01T07:26:02.404Z,641.25
2022-09-01T07:26:47.524Z,663.75
2022-09-01T07:27:43.930Z,686.25
2022-09-01T07:28:43.636Z,680.63
2022-09-01T07:29:43.600Z,658.13
2022-09-01T07:30:43.938Z,624.38
2022-09-01T07:31:51.984Z,607.50
2022-09-01T07:32:47.218Z,641.25
2022-09-01T07:33:44.417Z,714.38
2022-09-01T07:34:46.284Z,742.50
2022-09-01T07:36:25.579Z,759.38
2022-09-01T07:39:48.381Z,742.50
2022-09-01T07:39:51.549Z,804.38
2022-09-01T07:43:43.049Z,770.63
2022-09-01T07:44:44.124Z,776.25
2022-09-01T07:45:58.898Z,770.63
2022-09-01T07:46:43.093Z,736.88
2022-09-01T07:47:58.099Z,753.75
2022-09-01T07:51:35.770Z,804.38
2022-09-01T07:51:42.773Z,810.00
2022-09-01T07:52:42.710Z,787.50
2022-09-01T07:53:42.662Z,787.50
2022-09-01T07:54:42.706Z,866.25
2022-09-01T07:55:44.004Z,922.50
2022-09-01T07:56:42.717Z,928.13
2022-09-01T07:57:42.598Z,922.50
2022-09-01T07:58:42.469Z,922.50
2022-09-01T07:59:42.489Z,922.50
2022-09-01T08:00:42.537Z,961.88
2022-09-01T08:01:42.381Z,945.00
2022-09-01T08:02:42.582Z,900.00
2022-09-01T08:03:42.288Z,855.00
2022-09-01T08:04:42.411Z,860.63
2022-09-01T08:05:42.369Z,883.13
2022-09-01T08:06:42.243Z,900.00
2022-09-01T08:07:56.631Z,922.50
2022-09-01T08:08:42.086Z,995.63
2022-09-01T08:09:44.255Z,1080.00
2022-09-01T08:10:42.009Z,1096.88
2022-09-01T08:12:42.009Z,1096.88
2022-09-01T08:13:42.180Z,1091.25
2022-09-01T08:14:42.020Z,1102.50
2022-09-01T08:16:06.672Z,1091.25
2022-09-01T08:16:52.003Z,1091.25
2022-09-01T08:17:57.067Z,1102.50
2022-09-01T08:18:49.475Z,1113.75
2022-09-01T08:19:42.953Z,1063.13
2022-09-01T08:20:41.620Z,1018.13
2022-09-01T08:21:41.664Z,973.13
2022-09-01T08:22:41.547Z,939.38
2022-09-01T08:23:41.689Z,916.88
2022-09-01T08:24:41.570Z,922.50
2022-09-01T08:25:41.545Z,945.00
2022-09-01T08:26:41.394Z,905.63
2022-09-01T08:27:41.910Z,871.88
2022-09-01T08:28:45.921Z,894.38
2022-09-01T08:29:41.518Z,939.38
2022-09-01T08:30:41.249Z,956.25
2022-09-01T08:31:41.366Z,990.00
2022-09-01T08:32:41.190Z,1029.38
2022-09-01T08:33:41.128Z,1057.50
2022-09-01T08:34:41.198Z,1113.75
2022-09-01T08:35:41.161Z,1192.50
2022-09-01T08:36:41.015Z,1271.25
2022-09-01T08:37:41.195Z,1305.00
2022-09-01T08:38:40.970Z,1338.75
2022-09-01T08:39:40.908Z,1445.63
2022-09-01T08:40:41.104Z,1558.13
2022-09-01T08:41:41.136Z,1479.38
2022-09-01T08:42:40.786Z,1378.13
2022-09-01T08:43:40.808Z,1350.00
2022-09-01T08:44:40.862Z,1333.13
2022-09-01T08:45:40.675Z,1344.38
2022-09-01T08:46:40.678Z,1366.88
2022-09-01T08:48:04.759Z,1378.13
2022-09-01T08:49:43.773Z,1350.00
2022-09-01T08:50:40.883Z,1260.00
2022-09-01T08:51:40.511Z,1203.75
2022-09-01T08:52:41.389Z,1181.25
2022-09-01T08:53:40.371Z,1175.63
2022-09-01T08:54:40.471Z,1170.00
2022-09-01T08:55:40.297Z,1130.63
2022-09-01T08:56:40.497Z,1136.25
2022-09-01T08:57:40.329Z,1209.38
2022-09-01T08:58:40.316Z,1237.50
2022-09-01T08:59:40.159Z,1231.88
2022-09-01T09:00:40.362Z,1220.63
2022-09-01T09:01:40.125Z,1192.50
2022-09-01T09:02:40.160Z,1153.13
2022-09-01T09:03:41.078Z,1164.38
2022-09-01T09:04:40.341Z,1237.50
2022-09-01T09:05:39.929Z,1361.25
2022-09-01T09:06:40.004Z,1496.25
2022-09-01T09:07:39.875Z,1614.38
2022-09-01T09:08:39.816Z,1659.38
2022-09-01T09:09:39.796Z,1665.00
2022-09-01T09:10:39.971Z,1681.88
2022-09-01T09:11:39.735Z,1687.50
2022-09-01T09:12:48.985Z,1614.38
2022-09-01T09:13:39.628Z,1546.88
2022-09-01T09:14:39.863Z,1490.63
2022-09-01T09:15:39.863Z,1451.25
2022-09-01T09:16:39.519Z,1417.50
2022-09-01T09:17:39.615Z,1395.00
2022-09-01T09:18:40.230Z,1395.00
2022-09-01T09:19:39.631Z,1411.88
2022-09-01T09:20:39.396Z,1423.13
2022-09-01T09:21:39.440Z,1423.13
2022-09-01T09:22:39.303Z,1423.13
2022-09-01T09:23:39.452Z,1440.00
2022-09-01T09:24:40.334Z,1428.75
2022-09-01T09:25:39.264Z,1423.13
2022-09-01T09:26:42.540Z,1428.75
2022-09-01T09:27:39.285Z,1428.75
2022-09-01T09:28:39.080Z,1383.75
2022-09-01T09:29:39.307Z,1305.00
2022-09-01T09:30:39.178Z,1237.50
2022-09-01T09:31:39.012Z,1170.00
2022-09-01T09:33:06.551Z,1141.88
2022-09-01T09:33:51.201Z,1130.63
2022-09-01T09:34:38.864Z,1170.00
2022-09-01T09:35:38.928Z,1198.13
2022-09-01T09:36:39.004Z,1215.00
2022-09-01T09:37:38.756Z,1186.88
2022-09-01T09:38:38.716Z,1175.63
2022-09-01T09:39:39.772Z,1192.50
2022-09-01T09:40:59.997Z,1198.13
2022-09-01T09:41:38.651Z,1181.25
2022-09-01T09:42:39.052Z,1170.00
2022-09-01T09:43:38.541Z,1153.13
2022-09-01T09:44:38.538Z,1158.75
2022-09-01T09:45:41.665Z,1186.88
2022-09-01T09:46:39.711Z,1265.63
2022-09-01T09:47:45.236Z,1406.25
2022-09-01T09:48:38.347Z,1440.00
2022-09-01T09:49:44.260Z,1440.00
2022-09-01T09:50:38.422Z,1389.38
2022-09-01T09:51:38.264Z,1350.00
2022-09-01T09:52:38.437Z,1395.00
2022-09-01T09:53:38.225Z,1479.38
2022-09-01T09:54:38.246Z,1546.88
2022-09-01T09:55:38.093Z,1586.25
2022-09-01T09:56:38.325Z,1563.75
2022-09-01T09:57:38.116Z,1445.63
2022-09-01T09:58:38.218Z,1321.88
2022-09-01T09:59:57.139Z,1226.25
2022-09-01T10:00:37.921Z,1181.25
2022-09-01T10:01:38.130Z,1175.63
2022-09-01T10:02:37.839Z,1237.50
2022-09-01T10:03:38.117Z,1288.13
2022-09-01T10:04:37.771Z,1316.25
2022-09-01T10:05:37.917Z,1316.25
2022-09-01T10:06:37.923Z,1288.13
2022-09-01T10:07:37.678Z,1248.75
2022-09-01T10:08:37.729Z,1248.75
2022-09-01T10:09:37.861Z,1305.00
2022-09-01T10:10:37.748Z,1383.75
2022-09-01T10:11:41.270Z,1366.88
2022-09-01T10:12:37.474Z,1321.88
2022-09-01T10:13:37.435Z,1316.25
2022-09-01T10:14:52.516Z,1350.00
2022-09-01T10:15:37.377Z,1434.38
2022-09-01T10:16:37.431Z,1490.63
2022-09-01T10:17:37.291Z,1423.13
2022-09-01T10:18:37.549Z,1485.00
2022-09-01T10:19:37.227Z,1479.38
2022-09-01T10:20:37.428Z,1496.25
2022-09-01T10:21:37.157Z,1569.38
2022-09-01T10:22:37.263Z,1642.50
2022-09-01T10:23:37.094Z,1698.75
2022-09-01T10:24:38.793Z,1749.38
2022-09-01T10:25:37.370Z,1794.38
2022-09-01T10:26:37.411Z,1788.75
2022-09-01T10:27:37.056Z,1726.88
2022-09-01T10:28:36.888Z,1653.75
2022-09-01T10:29:47.406Z,1653.75
2022-09-01T10:30:36.853Z,1732.50
2022-09-01T10:31:37.010Z,1777.50
2022-09-01T10:32:38.684Z,1760.63
2022-09-01T10:33:37.013Z,2137.50
2022-09-01T10:34:37.101Z,4955.63
2022-09-01T10:35:45.757Z,5681.25
2022-09-01T10:36:37.375Z,4781.25
2022-09-01T10:37:36.563Z,5248.13
2022-09-01T10:38:36.528Z,4117.50
2022-09-01T10:39:40.862Z,3442.50
2022-09-01T10:40:36.475Z,4179.38
2022-09-01T10:41:36.423Z,6058.13
2022-09-01T10:42:36.397Z,4764.38
2022-09-01T10:43:37.985Z,5281.88
2022-09-01T10:44:36.319Z,5321.25
2022-09-01T10:45:36.597Z,4803.75
2022-09-01T10:46:41.900Z,3138.75
2022-09-01T10:47:36.239Z,2857.50
2022-09-01T10:48:47.868Z,2396.25
2022-09-01T10:49:36.163Z,2553.75
2022-09-01T10:50:36.145Z,5315.63
2022-09-01T10:51:38.620Z,1929.38
2022-09-01T10:52:37.208Z,1642.50
2022-09-01T10:53:36.035Z,1580.63
2022-09-01T10:54:38.520Z,1828.13
2022-09-01T10:55:36.007Z,3155.63
2022-09-01T10:56:36.852Z,3003.75
2022-09-01T10:57:36.171Z,1642.50
2022-09-01T10:59:40.184Z,1237.50
2022-09-01T11:00:36.261Z,1164.38
2022-09-01T11:01:47.860Z,1158.75
2022-09-01T11:02:36.921Z,1321.88
2022-09-01T11:03:42.151Z,2711.25
2022-09-01T11:04:36.319Z,2143.13
2022-09-01T11:05:35.655Z,3588.75
2022-09-01T11:06:35.649Z,5321.25
2022-09-01T11:08:00.347Z,5709.38
2022-09-01T11:08:35.555Z,4111.88
2022-09-01T11:09:35.525Z,4882.50
2022-09-01T11:10:35.884Z,3571.88
2022-09-01T11:11:35.482Z,1074.38
2022-09-01T11:12:35.458Z,1063.13
2022-09-01T11:13:35.396Z,4831.88
2022-09-01T11:14:35.370Z,5023.13
2022-09-01T11:15:35.469Z,5051.25
2022-09-01T11:16:50.613Z,4770.00
2022-09-01T11:17:35.336Z,5118.75
2022-09-01T11:18:35.307Z,5265.00
2022-09-01T11:19:35.216Z,5242.50
2022-09-01T11:20:35.188Z,4978.13
2022-09-01T11:21:35.151Z,4893.75
2022-09-01T11:22:35.144Z,5056.88
2022-09-01T11:23:35.115Z,5298.75
2022-09-01T11:24:35.060Z,5371.88
2022-09-01T11:25:41.516Z,5850.00
2022-09-01T11:26:35.026Z,6058.13
2022-09-01T11:27:34.970Z,6238.13
2022-09-01T11:28:34.942Z,2750.63
2022-09-01T11:29:34.912Z,5776.88
2022-09-01T11:30:34.901Z,5793.75
2022-09-01T11:31:34.926Z,5625.00
2022-09-01T11:32:34.851Z,5467.50
2022-09-01T11:33:34.798Z,5529.38
2022-09-01T11:34:34.782Z,5782.50
2022-09-01T11:35:34.751Z,6046.88
2022-09-01T11:36:34.715Z,6283.13
2022-09-01T11:37:34.686Z,6255.00
2022-09-01T11:38:34.670Z,4899.38
2022-09-01T11:39:34.638Z,5445.00
2022-09-01T11:40:34.664Z,1867.50
2022-09-01T11:41:34.578Z,1693.13
2022-09-01T11:42:34.752Z,1614.38
2022-09-01T11:43:34.526Z,5619.38
2022-09-01T11:44:34.500Z,5332.50
2022-09-01T11:45:34.527Z,5349.38
2022-09-01T11:46:34.444Z,5428.13
2022-09-01T11:47:34.418Z,5383.13
2022-09-01T11:48:34.435Z,5501.25
2022-09-01T11:49:34.364Z,5450.63
2022-09-01T11:50:34.337Z,5585.63
2022-09-01T11:51:34.310Z,5495.63
2022-09-01T11:52:34.286Z,5343.75
2022-09-01T11:53:34.260Z,5495.63
2022-09-01T11:54:34.259Z,6035.63
2022-09-01T11:55:34.202Z,6001.88
2022-09-01T11:56:34.174Z,6114.38
2022-09-01T11:57:34.153Z,6120.00
2022-09-01T11:58:34.124Z,6046.88
2022-09-01T11:59:34.096Z,5416.88
2022-09-01T12:00:34.097Z,5186.25
2022-09-01T12:01:34.045Z,5501.25
2022-09-01T12:02:36.734Z,5962.50
2022-09-01T12:03:34.106Z,6001.88
2022-09-01T12:04:33.966Z,5270.63
2022-09-01T12:05:33.942Z,5703.75
2022-09-01T12:06:33.939Z,5934.38
2022-09-01T12:07:33.889Z,5951.25
2022-09-01T12:08:33.866Z,5805.00
2022-09-01T12:09:33.837Z,5788.13
2022-09-01T12:10:33.812Z,5765.63
2022-09-01T12:11:33.783Z,3960.00
2022-09-01T12:12:33.803Z,5895.00
2022-09-01T12:13:33.734Z,3543.75
2022-09-01T12:14:54.879Z,4466.25
2022-09-01T12:15:33.680Z,3768.75
2022-09-01T12:16:33.728Z,6637.50
2022-09-01T12:17:33.635Z,6513.75
2022-09-01T12:18:33.620Z,2936.25
2022-09-01T12:19:33.586Z,2188.13
2022-09-01T12:20:33.568Z,2182.50
2022-09-01T12:21:33.550Z,2210.63
2022-09-01T12:22:33.511Z,2098.13
2022-09-01T12:23:33.503Z,2047.50
2022-09-01T12:24:33.460Z,2126.25
2022-09-01T12:25:33.432Z,2193.75
2022-09-01T12:26:33.412Z,4179.38
2022-09-01T12:27:33.393Z,2137.50
2022-09-01T12:28:33.357Z,1856.25
2022-09-01T12:29:33.323Z,1608.75
2022-09-01T12:30:33.296Z,1355.63
2022-09-01T12:31:33.320Z,1203.75
2022-09-01T12:32:33.257Z,1164.38
2022-09-01T12:33:33.210Z,1136.25
2022-09-01T12:34:33.184Z,1063.13
2022-09-01T12:35:33.153Z,1040.63
2022-09-01T12:36:33.157Z,1040.63
2022-09-01T12:37:33.093Z,1035.00
2022-09-01T12:38:33.076Z,1085.63
2022-09-01T12:39:33.850Z,1873.13
2022-09-01T12:40:33.033Z,5298.75
2022-09-01T12:41:32.971Z,5040.00
2022-09-01T12:42:41.329Z,5124.38
2022-09-01T12:43:32.910Z,5034.38
2022-09-01T12:44:32.880Z,4747.50
2022-09-01T12:45:32.884Z,4702.50
2022-09-01T12:46:33.391Z,4640.63
2022-09-01T12:47:32.804Z,4680.00
2022-09-01T12:48:33.468Z,4601.25
2022-09-01T12:49:32.732Z,4668.75
2022-09-01T12:50:32.699Z,4674.38
2022-09-01T12:51:32.670Z,4781.25
2022-09-01T12:52:32.640Z,4820.63
2022-09-01T12:53:36.122Z,4753.13
2022-09-01T12:54:32.586Z,4961.25
2022-09-01T12:55:47.963Z,4989.38
2022-09-01T12:56:32.528Z,4955.63
2022-09-01T12:57:32.501Z,3436.88
2022-09-01T12:58:32.499Z,4128.75
2022-09-01T12:59:37.245Z,1946.25
2022-09-01T13:00:32.417Z,3065.63
2022-09-01T13:01:32.540Z,3723.75
2022-09-01T13:02:32.498Z,4522.50
2022-09-01T13:03:32.330Z,4145.63
2022-09-01T13:04:32.424Z,4933.13
2022-09-01T13:05:36.087Z,2075.63